Time;durP1;ratioP1;P1;durP2;ratioP2;P2;SDS_P1;SDS_P2;PMS_P1;PMS_P2;Temp;Humidity;BMP_temperature;BMP_pressure;BME280_temperature;BME280_humidity;BME280_pressure;Samples;Min_cycle;Max_cycle;Signal;HPM_P1;HPM_P2
2022/01/07 00:00:36;;;;;;;154.68;126.62;;;20.50;50.40;;;;;;4737941;59;21017;-34
2022/01/07 00:05:37;;;;;;;149.95;123.50;;;20.50;50.30;;;;;;4739765;55;21491;-36
2022/01/07 00:10:38;;;;;;;154.73;124.72;;;20.50;50.30;;;;;;4746260;55;21050;-34
2022/01/07 00:15:40;;;;;;;147.23;121.07;;;20.50;50.40;;;;;;4761555;55;21515;-34
2022/01/07 00:20:41;;;;;;;146.73;120.45;;;20.50;50.30;;;;;;4738014;59;21013;-35
2022/01/07 00:25:42;;;;;;;150.07;121.40;;;20.50;50.20;;;;;;4737741;59;20994;-34
2022/01/07 00:30:43;;;;;;;148.02;122.25;;;20.50;50.30;;;;;;4741807;55;21006;-33
2022/01/07 00:35:44;;;;;;;143.57;116.70;;;20.50;50.20;;;;;;4763531;55;21816;-34
2022/01/07 00:40:45;;;;;;;144.13;118.65;;;20.50;50.20;;;;;;4746357;55;21467;-33
2022/01/07 00:45:46;;;;;;;143.15;115.97;;;20.50;50.10;;;;;;4737660;59;21013;-34
2022/01/07 00:50:47;;;;;;;139.80;115.35;;;20.50;50.00;;;;;;4759058;55;21546;-33
2022/01/07 00:55:48;;;;;;;142.75;115.93;;;20.50;50.60;;;;;;4779776;55;21002;-32
2022/01/07 01:00:49;;;;;;;139.10;113.35;;;20.50;49.90;;;;;;4746467;55;21500;-26
2022/01/07 01:05:50;;;;;;;144.95;116.90;;;20.50;49.80;;;;;;4746201;55;21524;-34
2022/01/07 01:10:51;;;;;;;138.25;112.55;;;20.50;49.80;;;;;;4771488;55;21022;-36
2022/01/07 01:15:52;;;;;;;141.73;114.93;;;20.50;49.80;;;;;;4738170;59;21006;-34
2022/01/07 01:20:53;;;;;;;137.45;113.03;;;20.50;49.80;;;;;;4746626;55;21920;-34
2022/01/07 01:25:54;;;;;;;132.18;106.90;;;20.50;49.80;;;;;;4777166;55;21501;-33
2022/01/07 01:30:55;;;;;;;137.18;110.68;;;20.50;49.80;;;;;;4743580;55;21135;-33
2022/01/07 01:35:56;;;;;;;132.68;107.97;;;20.50;49.70;;;;;;4748308;55;21053;-35
2022/01/07 01:40:57;;;;;;;129.32;105.82;;;20.50;49.80;;;;;;4773052;55;21029;-33
2022/01/07 01:45:58;;;;;;;130.32;107.72;;;20.50;49.80;;;;;;4742633;55;21045;-34
2022/01/07 01:50:59;;;;;;;132.75;110.18;;;20.50;49.60;;;;;;4784698;55;21050;-37
2022/01/07 01:56:00;;;;;;;133.73;108.10;;;20.50;49.60;;;;;;4756663;55;21062;-34
2022/01/07 02:01:01;;;;;;;133.95;108.63;;;20.50;49.50;;;;;;4764584;55;21007;-34
2022/01/07 02:06:02;;;;;;;122.85;98.95;;;20.50;49.50;;;;;;4736919;59;21145;-36
2022/01/07 02:11:05;;;;;;;123.55;99.78;;;20.50;49.50;;;;;;4826369;55;21042;-34
2022/01/07 02:16:05;;;;;;;131.93;104.20;;;20.50;49.40;;;;;;4738026;59;21113;-33
2022/01/07 02:21:06;;;;;;;129.02;102.53;;;20.50;49.30;;;;;;4798971;55;21479;-35
2022/01/07 02:26:07;;;;;;;127.78;102.25;;;20.50;49.40;;;;;;4763652;55;21560;-36
2022/01/07 02:31:08;;;;;;;125.57;104.87;;;20.50;49.50;;;;;;4741694;55;21001;-35
2022/01/07 02:36:10;;;;;;;124.45;99.22;;;20.50;49.30;;;;;;4844923;55;21017;-34
2022/01/07 02:41:11;;;;;;;123.22;100.32;;;20.50;49.30;;;;;;4748851;55;21066;-35
2022/01/07 02:46:12;;;;;;;120.30;96.10;;;20.40;49.30;;;;;;4747827;55;21473;-35
2022/01/07 02:51:13;;;;;;;124.82;101.32;;;20.40;49.60;;;;;;4757980;55;21006;-35
2022/01/07 02:56:13;;;;;;;129.02;102.90;;;20.40;49.10;;;;;;4750090;55;21021;-36
2022/01/07 03:01:14;;;;;;;127.62;103.12;;;20.40;49.10;;;;;;4764391;55;21041;-33
2022/01/07 03:06:16;;;;;;;125.28;103.07;;;20.40;49.10;;;;;;4754953;55;21089;-36
2022/01/07 03:11:18;;;;;;;114.85;91.68;;;20.40;49.00;;;;;;4798823;55;21041;-34
2022/01/07 03:16:19;;;;;;;115.28;95.05;;;20.40;49.30;;;;;;4773090;55;21046;-36
2022/01/07 03:21:20;;;;;;;116.95;93.45;;;20.40;49.00;;;;;;4759811;55;21508;-33
2022/01/07 03:26:21;;;;;;;115.10;89.95;;;20.40;48.90;;;;;;4848926;55;21078;-36
2022/01/07 03:31:22;;;;;;;118.97;95.70;;;20.40;49.00;;;;;;4772041;55;21492;-33
2022/01/07 03:36:22;;;;;;;121.97;97.72;;;20.40;48.90;;;;;;4811407;55;21548;-37
2022/01/07 03:41:23;;;;;;;119.93;96.15;;;20.40;48.80;;;;;;4757724;55;21049;-34
2022/01/07 03:46:24;;;;;;;112.05;92.28;;;20.40;48.90;;;;;;4740965;55;21157;-35
2022/01/07 03:51:25;;;;;;;111.72;87.05;;;20.40;48.80;;;;;;4738562;59;21040;-35
2022/01/07 03:56:26;;;;;;;118.62;93.65;;;20.40;48.80;;;;;;4851188;55;21034;-36
2022/01/07 04:01:27;;;;;;;116.32;93.30;;;20.40;48.70;;;;;;4737795;59;20998;-31
2022/01/07 04:06:28;;;;;;;114.20;90.22;;;20.40;48.70;;;;;;4772560;55;21484;-33
2022/01/07 04:11:29;;;;;;;118.87;93.25;;;20.40;48.70;;;;;;4737962;59;21086;-36
2022/01/07 04:16:30;;;;;;;111.80;89.43;;;20.40;48.70;;;;;;4737428;59;21464;-34
2022/01/07 04:21:30;;;;;;;113.95;90.68;;;20.40;48.70;;;;;;4751726;55;21046;-35
2022/01/07 04:26:31;;;;;;;109.95;89.10;;;20.40;48.60;;;;;;4738102;59;21531;-36
2022/01/07 04:31:32;;;;;;;107.35;87.85;;;20.40;48.60;;;;;;4765274;55;21033;-33
2022/01/07 04:36:33;;;;;;;111.95;89.75;;;20.40;48.50;;;;;;4753602;55;21046;-36
2022/01/07 04:41:34;;;;;;;111.35;90.53;;;20.40;48.40;;;;;;4743198;55;21009;-36
2022/01/07 04:46:35;;;;;;;109.57;87.57;;;20.40;48.50;;;;;;4753015;55;21490;-32
2022/01/07 04:51:36;;;;;;;108.60;82.60;;;20.40;48.50;;;;;;4738167;59;21002;-32
2022/01/07 04:56:37;;;;;;;108.57;80.55;;;20.40;49.10;;;;;;4755140;55;21546;-34
2022/01/07 05:01:38;;;;;;;101.45;79.72;;;20.40;48.50;;;;;;4770289;55;21089;-37
2022/01/07 05:06:45;;;;;;;105.87;84.82;;;20.40;48.60;;;;;;4738508;55;21050;-36
2022/01/07 05:11:48;;;;;;;103.00;81.10;;;20.30;48.40;;;;;;4767198;55;21612;-33
2022/01/07 05:16:49;;;;;;;99.93;77.53;;;20.30;48.50;;;;;;4737665;59;21059;-33
2022/01/07 05:21:49;;;;;;;100.18;77.90;;;20.30;49.10;;;;;;4742777;55;20986;-36
2022/01/07 05:26:50;;;;;;;100.20;80.10;;;20.30;48.40;;;;;;4737193;55;21117;-34
2022/01/07 05:31:51;;;;;;;98.18;77.82;;;20.40;48.60;;;;;;4743688;55;21050;-35
2022/01/07 05:36:52;;;;;;;102.47;79.82;;;20.30;48.50;;;;;;4738259;56;20998;-36
2022/01/07 05:41:53;;;;;;;101.43;80.45;;;20.30;48.60;;;;;;4791120;55;21049;-25
2022/01/07 05:46:54;;;;;;;98.87;76.68;;;20.30;48.70;;;;;;4743337;55;21025;-35
2022/01/07 05:51:55;;;;;;;92.53;76.75;;;20.30;48.70;;;;;;4753196;55;21069;-37
2022/01/07 05:56:56;;;;;;;90.68;71.97;;;20.30;48.70;;;;;;4743352;55;21037;-32
2022/01/07 06:01:57;;;;;;;89.93;69.97;;;20.30;48.80;;;;;;4760582;55;21050;-35
2022/01/07 06:06:58;;;;;;;96.07;76.45;;;20.30;48.80;;;;;;4751882;55;21536;-34
2022/01/07 06:11:58;;;;;;;88.80;70.70;;;20.30;48.70;;;;;;4746635;55;21037;-34
2022/01/07 06:16:59;;;;;;;92.25;75.12;;;20.30;48.80;;;;;;4738181;59;21014;-33
2022/01/07 06:22:00;;;;;;;91.37;72.10;;;20.30;48.60;;;;;;4746817;55;21002;-36
2022/01/07 06:27:01;;;;;;;89.93;71.85;;;20.30;48.70;;;;;;4744279;55;21199;-29
2022/01/07 06:32:02;;;;;;;89.72;68.93;;;20.30;48.70;;;;;;4738330;55;21056;-37
2022/01/07 06:37:04;;;;;;;91.22;71.87;;;20.30;48.60;;;;;;4757985;55;21006;-36
2022/01/07 06:42:06;;;;;;;90.05;71.12;;;20.30;48.70;;;;;;4746877;55;21006;-34
2022/01/07 06:47:07;;;;;;;88.53;70.25;;;20.30;48.60;;;;;;4737031;59;21006;-36
2022/01/07 06:52:08;;;;;;;87.12;68.35;;;20.30;48.40;;;;;;4744870;55;21121;-36
2022/01/07 06:57:09;;;;;;;85.35;67.35;;;20.30;48.50;;;;;;4755049;55;21468;-35
2022/01/07 07:02:10;;;;;;;84.30;67.35;;;20.30;48.40;;;;;;4770203;55;21079;-34
2022/01/07 07:07:11;;;;;;;81.00;63.72;;;20.30;48.40;;;;;;4769559;55;21014;-35
2022/01/07 07:12:13;;;;;;;81.43;62.30;;;20.30;48.30;;;;;;4742004;55;21101;-35
2022/01/07 07:17:14;;;;;;;82.18;66.43;;;20.30;48.40;;;;;;4739494;55;21500;-34
2022/01/07 07:22:15;;;;;;;81.93;66.05;;;20.30;48.20;;;;;;4748989;55;21488;-37
2022/01/07 07:27:16;;;;;;;83.85;67.15;;;20.30;48.20;;;;;;4740393;55;21017;-35
2022/01/07 07:32:23;;;;;;;79.12;60.92;;;20.30;48.10;;;;;;4737492;59;20998;-36
2022/01/07 07:37:23;;;;;;;87.23;68.40;;;20.30;48.30;;;;;;4748705;55;21493;-34
2022/01/07 07:42:24;;;;;;;85.47;68.20;;;20.30;48.00;;;;;;4737973;59;20994;-34
2022/01/07 07:47:25;;;;;;;83.32;66.40;;;20.30;48.10;;;;;;4756672;55;21086;-37
2022/01/07 07:52:26;;;;;;;88.22;68.30;;;20.30;48.00;;;;;;4743260;55;21057;-35
2022/01/07 07:57:27;;;;;;;86.28;67.62;;;20.30;48.10;;;;;;4738682;59;21476;-35
2022/01/07 08:02:30;;;;;;;83.12;66.25;;;20.30;47.90;;;;;;4757832;55;21488;-32
2022/01/07 08:07:31;;;;;;;89.90;69.65;;;20.30;47.90;;;;;;4737184;59;21519;-30
2022/01/07 08:12:53;;;;;;;86.78;66.45;;;20.30;47.80;;;;;;4736849;59;21049;-34
2022/01/07 08:17:54;;;;;;;83.62;64.80;;;20.30;48.00;;;;;;4745592;55;21623;-35
2022/01/07 08:22:56;;;;;;;87.50;68.32;;;20.40;48.20;;;;;;4820209;55;21010;-28
2022/01/07 08:28:00;;;;;;;86.93;67.57;;;20.40;48.30;;;;;;4767948;55;21033;-33
2022/01/07 08:38:22;;;;;;;87.82;67.97;;;20.50;49.00;;;;;;4737778;55;21017;-34
2022/01/07 08:43:22;;;;;;;90.35;69.57;;;20.60;48.80;;;;;;4741918;55;21528;-33
2022/01/07 08:48:27;;;;;;;88.55;71.20;;;20.60;49.00;;;;;;4736942;59;21519;-29
2022/01/07 08:53:28;;;;;;;90.18;70.53;;;20.70;49.30;;;;;;4835780;55;21166;-34
2022/01/07 08:58:29;;;;;;;92.12;72.10;;;20.70;49.50;;;;;;4752063;55;21532;-31
2022/01/07 09:03:30;;;;;;;93.18;73.70;;;20.80;49.70;;;;;;4757721;55;21029;-35
2022/01/07 09:08:31;;;;;;;94.87;75.07;;;20.80;49.90;;;;;;4745106;55;21065;-34
2022/01/07 09:13:32;;;;;;;97.68;75.85;;;20.90;49.90;;;;;;4737186;59;21515;-34
2022/01/07 09:18:33;;;;;;;101.68;77.53;;;20.90;50.30;;;;;;4739444;55;21500;-33
2022/01/07 09:23:34;;;;;;;98.45;76.15;;;21.00;50.60;;;;;;4747665;55;20993;-34
2022/01/07 09:28:35;;;;;;;100.22;78.62;;;21.00;50.80;;;;;;4786413;55;21032;-34
2022/01/07 09:33:36;;;;;;;103.25;81.82;;;21.00;50.90;;;;;;4737532;59;21513;-35
2022/01/07 09:38:37;;;;;;;103.55;81.22;;;21.00;51.10;;;;;;4744587;55;21075;-33
2022/01/07 09:43:42;;;;;;;109.75;85.28;;;21.00;51.20;;;;;;4779534;55;21037;-33
2022/01/07 09:48:43;;;;;;;107.45;83.22;;;21.10;51.40;;;;;;4749664;55;21526;-33
2022/01/07 09:53:44;;;;;;;110.43;86.43;;;21.10;51.30;;;;;;4736732;59;21010;-34
2022/01/07 09:58:45;;;;;;;106.87;84.03;;;21.10;51.50;;;;;;4755457;55;21547;-33
2022/01/07 10:03:46;;;;;;;111.00;85.90;;;21.10;51.60;;;;;;4752212;55;21128;-32
2022/01/07 10:10:39;;;;;;;112.47;87.32;;;21.10;51.60;;;;;;4737575;55;21126;-30
2022/01/07 10:15:40;;;;;;;117.18;90.95;;;21.10;51.80;;;;;;4762666;55;21595;-33
2022/01/07 10:20:43;;;;;;;113.97;89.65;;;21.10;51.60;;;;;;4745435;55;21139;-29
2022/01/07 10:25:46;;;;;;;116.18;90.00;;;21.10;51.50;;;;;;4782859;55;21111;-33
2022/01/07 10:30:52;;;;;;;118.00;89.82;;;21.10;51.60;;;;;;4758134;55;21520;-36
2022/01/07 10:35:55;;;;;;;125.20;97.93;;;21.10;51.50;;;;;;4758781;55;21029;-36
2022/01/07 10:41:00;;;;;;;127.60;95.80;;;21.10;52.00;;;;;;4742229;55;21002;-35
2022/01/07 10:46:52;;;;;;;116.53;94.78;;;21.10;51.60;;;;;;4761312;55;21066;-33
2022/01/07 10:51:54;;;;;;;114.12;90.32;;;21.20;51.60;;;;;;4739625;55;22128;-33
2022/01/07 10:56:54;;;;;;;117.97;93.07;;;21.20;51.70;;;;;;4747654;55;21011;-34
2022/01/07 11:01:57;;;;;;;114.80;89.87;;;21.30;51.90;;;;;;4744550;55;21050;-34
2022/01/07 11:07:02;;;;;;;126.97;98.80;;;21.30;52.00;;;;;;4777214;55;21075;-34
2022/01/07 11:12:06;;;;;;;128.70;100.85;;;21.30;52.00;;;;;;4743847;55;21591;-36
2022/01/07 11:17:10;;;;;;;129.77;98.95;;;21.40;52.20;;;;;;4768571;55;21584;-33
2022/01/07 11:22:12;;;;;;;128.18;97.37;;;21.40;52.30;;;;;;4743529;55;21976;-32
2022/01/07 11:27:20;;;;;;;123.68;96.25;;;21.40;52.30;;;;;;4754914;55;21974;-33
2022/01/07 11:32:36;;;;;;;123.18;96.85;;;21.40;52.40;;;;;;4778673;55;21108;-31
2022/01/07 11:37:40;;;;;;;124.03;97.97;;;21.40;52.50;;;;;;4753086;55;21010;-32
2022/01/07 11:42:44;;;;;;;126.70;100.85;;;21.50;52.60;;;;;;4742035;55;21472;-35
2022/01/07 11:47:48;;;;;;;131.80;102.45;;;21.50;52.80;;;;;;4736377;59;21022;-32
2022/01/07 11:53:04;;;;;;;129.12;102.53;;;21.50;52.80;;;;;;4771432;55;22169;-31
2022/01/07 11:58:08;;;;;;;134.15;100.28;;;21.50;52.90;;;;;;4757766;55;21567;-33
2022/01/07 12:03:09;;;;;;;135.15;103.10;;;21.60;53.00;;;;;;4748148;55;21085;-33
2022/01/07 12:08:10;;;;;;;185.60;136.62;;;21.50;52.50;;;;;;4736856;59;21519;-34
2022/01/07 12:13:11;;;;;;;235.48;175.57;;;21.50;47.50;;;;;;4760851;55;21555;-31
2022/01/07 12:18:11;;;;;;;240.27;177.62;;;21.40;46.10;;;;;;4749745;55;21129;-32
2022/01/07 12:23:19;;;;;;;225.13;169.65;;;21.40;45.20;;;;;;4737644;59;21522;-30
2022/01/07 12:28:21;;;;;;;231.25;172.68;;;21.30;45.80;;;;;;4742197;55;21065;-30
2022/01/07 12:33:22;;;;;;;224.43;166.32;;;21.30;45.90;;;;;;4754899;55;21699;-34
2022/01/07 12:38:23;;;;;;;220.63;161.73;;;21.30;46.10;;;;;;4768334;55;21117;-27
2022/01/07 12:43:31;;;;;;;210.20;156.80;;;21.30;46.10;;;;;;4737801;56;21528;-33
2022/01/07 12:48:38;;;;;;;211.15;159.12;;;21.30;46.60;;;;;;4750497;55;21091;-33
2022/01/07 12:53:53;;;;;;;;;;;21.30;46.90;;;;;;4741447;55;21013;-32
2022/01/07 12:58:55;;;;;;;209.00;154.68;;;21.40;47.30;;;;;;4803895;55;20268;-35
2022/01/07 13:04:01;;;;;;;203.73;153.18;;;21.40;47.60;;;;;;4740956;55;21073;-33
2022/01/07 13:09:02;;;;;;;202.98;149.70;;;21.40;47.90;;;;;;4751435;55;21029;-33
2022/01/07 13:14:07;;;;;;;206.05;152.23;;;21.40;48.20;;;;;;4742827;55;21480;-34
2022/01/07 13:19:12;;;;;;;196.80;149.05;;;21.40;48.40;;;;;;4769851;55;21509;-30
2022/01/07 13:24:14;;;;;;;189.18;144.75;;;21.50;48.80;;;;;;4769609;55;21481;-35
2022/01/07 13:29:21;;;;;;;194.27;146.90;;;21.50;49.10;;;;;;4737522;55;21093;-34
2022/01/07 13:34:27;;;;;;;191.30;144.00;;;21.50;49.30;;;;;;4743885;55;21033;-34
2022/01/07 13:39:59;;;;;;;180.93;135.88;;;21.50;49.60;;;;;;4763586;55;21578;-35
2022/01/07 13:45:03;;;;;;;186.43;140.25;;;21.50;49.60;;;;;;4787545;55;21511;-31
2022/01/07 13:50:17;;;;;;;191.20;143.23;;;21.40;49.70;;;;;;4746648;55;20993;-35
2022/01/07 13:55:29;;;;;;;198.15;146.85;;;21.40;49.90;;;;;;4764951;55;21065;-36
2022/01/07 14:00:30;;;;;;;182.57;137.95;;;21.40;50.10;;;;;;4759925;55;21041;-34
2022/01/07 14:05:31;;;;;;;186.80;140.15;;;21.40;50.30;;;;;;4750477;55;21086;-36
2022/01/07 14:10:35;;;;;;;182.02;138.85;;;21.40;50.90;;;;;;4738194;55;21152;-34
2022/01/07 14:15:47;;;;;;;186.30;139.40;;;21.40;50.10;;;;;;4753471;55;21476;-33
2022/01/07 14:20:54;;;;;;;188.30;139.68;;;21.30;50.00;;;;;;4737691;55;20997;-34
2022/01/07 14:26:19;;;;;;;182.40;137.57;;;21.40;49.90;;;;;;4738454;59;21523;-37
2022/01/07 14:31:23;;;;;;;179.38;136.57;;;21.30;49.80;;;;;;4753217;55;21551;-36
2022/01/07 14:36:26;;;;;;;175.32;131.02;;;21.30;49.70;;;;;;4748509;55;21030;-34
2022/01/07 14:41:27;;;;;;;174.73;134.40;;;21.30;49.70;;;;;;4743437;55;21445;-34
2022/01/07 14:46:27;;;;;;;179.75;138.05;;;21.30;49.50;;;;;;4745533;55;21014;-33
2022/01/07 14:51:28;;;;;;;175.02;135.07;;;21.30;49.60;;;;;;4746670;55;21541;-34
2022/01/07 14:56:29;;;;;;;174.62;132.07;;;21.30;49.50;;;;;;4762886;55;21047;-35
2022/01/07 15:01:30;;;;;;;174.70;134.00;;;21.30;49.30;;;;;;4742879;55;21125;-31
2022/01/07 15:06:31;;;;;;;169.32;130.15;;;21.20;49.40;;;;;;4738868;55;21629;-33
2022/01/07 15:11:32;;;;;;;163.57;125.80;;;21.20;49.30;;;;;;4745431;55;21026;-34
2022/01/07 15:16:45;;;;;;;175.35;133.18;;;21.10;49.20;;;;;;4779410;55;21046;-34
2022/01/07 15:21:47;;;;;;;171.80;131.27;;;21.10;49.10;;;;;;4744658;55;22207;-28
2022/01/07 15:26:48;;;;;;;174.82;132.98;;;21.10;49.10;;;;;;4777700;55;21531;-36
2022/01/07 15:31:49;;;;;;;169.18;126.95;;;21.10;49.00;;;;;;4747424;55;20997;-36
2022/01/07 15:36:52;;;;;;;165.27;127.07;;;21.00;49.00;;;;;;4753232;55;21049;-35
2022/01/07 15:41:53;;;;;;;161.80;128.60;;;21.00;49.00;;;;;;4752849;55;21531;-36
2022/01/07 15:46:54;;;;;;;171.45;129.00;;;21.00;49.00;;;;;;4769249;55;21073;-32
2022/01/07 15:51:55;;;;;;;160.37;122.30;;;21.00;49.00;;;;;;4752436;55;21701;-35
2022/01/07 15:56:55;;;;;;;163.07;124.65;;;21.00;49.00;;;;;;4756062;55;21530;-35
2022/01/07 16:01:56;;;;;;;169.45;129.98;;;20.90;49.00;;;;;;4737580;59;21111;-35
2022/01/07 16:06:57;;;;;;;160.80;123.22;;;20.90;48.90;;;;;;4778012;55;21315;-35
2022/01/07 16:11:58;;;;;;;161.98;126.70;;;20.90;48.90;;;;;;4771328;55;21037;-31
2022/01/07 16:17:00;;;;;;;162.32;126.60;;;20.90;48.80;;;;;;4737999;59;21033;-35
2022/01/07 16:22:01;;;;;;;168.18;130.52;;;20.90;48.70;;;;;;4752904;55;21113;-36
2022/01/07 16:27:02;;;;;;;164.68;125.22;;;20.90;48.70;;;;;;4753651;55;21048;-36
2022/01/07 16:32:03;;;;;;;165.52;129.10;;;20.90;48.70;;;;;;4751770;55;21002;-36
2022/01/07 16:37:04;;;;;;;164.57;126.87;;;20.90;48.70;;;;;;4763705;55;21050;-36
2022/01/07 16:42:05;;;;;;;164.82;124.25;;;20.80;48.50;;;;;;4803689;55;21086;-34
2022/01/07 16:47:07;;;;;;;161.85;126.22;;;20.80;48.40;;;;;;4737168;59;21061;-34
2022/01/07 16:52:09;;;;;;;160.65;124.28;;;20.80;48.40;;;;;;4754626;55;21584;-35
2022/01/07 16:57:10;;;;;;;164.27;126.82;;;20.80;48.40;;;;;;4748502;55;21496;-34
2022/01/07 17:02:11;;;;;;;157.10;122.50;;;20.80;48.30;;;;;;4748325;55;21028;-30
2022/01/07 17:07:11;;;;;;;160.55;126.07;;;20.80;48.40;;;;;;4737086;59;21062;-35
2022/01/07 17:12:12;;;;;;;159.65;124.72;;;20.80;48.30;;;;;;4772341;55;21022;-35
2022/01/07 17:17:14;;;;;;;155.37;121.82;;;20.80;48.20;;;;;;4751207;55;21065;-32
2022/01/07 17:22:15;;;;;;;156.65;122.05;;;20.80;48.90;;;;;;4761002;55;21468;-36
2022/01/07 17:27:16;;;;;;;156.57;122.28;;;20.80;48.20;;;;;;4752234;55;21009;-35
2022/01/07 17:32:18;;;;;;;158.35;121.37;;;20.80;48.10;;;;;;4760168;55;21073;-33
2022/01/07 17:37:20;;;;;;;155.15;120.28;;;20.80;48.10;;;;;;4753180;55;21017;-36
2022/01/07 17:42:21;;;;;;;158.95;123.55;;;20.80;48.10;;;;;;4787178;55;20990;-36
2022/01/07 17:47:22;;;;;;;157.62;124.15;;;20.80;48.00;;;;;;4771661;55;21523;-35
2022/01/07 17:52:23;;;;;;;158.27;122.97;;;20.70;47.90;;;;;;4737721;59;21128;-36
2022/01/07 17:57:27;;;;;;;156.10;122.97;;;20.80;48.00;;;;;;4750464;55;21463;-35
2022/01/07 18:02:28;;;;;;;158.77;121.82;;;20.70;47.90;;;;;;4777945;55;21587;-37
2022/01/07 18:07:29;;;;;;;151.82;119.35;;;20.70;47.80;;;;;;4770506;55;21034;-35
2022/01/07 18:12:30;;;;;;;150.00;118.87;;;20.80;47.80;;;;;;4737438;55;21540;-34
2022/01/07 18:17:31;;;;;;;152.35;120.22;;;20.80;47.70;;;;;;4747629;55;21022;-36
2022/01/07 18:22:32;;;;;;;150.30;120.30;;;20.70;47.70;;;;;;4753652;55;21567;-35
2022/01/07 18:27:36;;;;;;;149.02;116.57;;;20.70;47.60;;;;;;4743184;55;21498;-33
2022/01/07 18:32:37;;;;;;;152.40;119.70;;;20.70;47.60;;;;;;4737809;55;21002;-37
2022/01/07 18:37:38;;;;;;;152.02;117.57;;;20.70;47.60;;;;;;4737713;56;21002;-38
2022/01/07 18:42:39;;;;;;;153.65;120.25;;;20.70;47.60;;;;;;4740306;55;21014;-36
2022/01/07 18:47:39;;;;;;;148.40;114.50;;;20.70;47.70;;;;;;4737439;55;21094;-36
2022/01/07 18:52:40;;;;;;;150.75;117.68;;;20.70;47.50;;;;;;4737389;59;20990;-37
2022/01/07 18:57:42;;;;;;;144.62;115.90;;;20.70;47.40;;;;;;4767050;55;21005;-34
2022/01/07 19:02:44;;;;;;;147.52;117.95;;;20.70;47.50;;;;;;4814854;55;21017;-36
2022/01/07 19:07:45;;;;;;;148.07;116.47;;;20.70;47.50;;;;;;4814050;55;21014;-36
2022/01/07 19:12:46;;;;;;;140.65;113.93;;;20.70;47.40;;;;;;4788457;55;21038;-37
2022/01/07 19:17:46;;;;;;;145.10;116.32;;;20.70;47.40;;;;;;4815726;55;21487;-33
2022/01/07 19:22:47;;;;;;;143.90;113.88;;;20.70;47.30;;;;;;4759244;55;21053;-36
2022/01/07 19:27:51;;;;;;;139.50;112.62;;;20.70;47.30;;;;;;4752199;55;21074;-35
2022/01/07 19:32:52;;;;;;;148.87;114.35;;;20.70;47.30;;;;;;4803582;55;20987;-28
2022/01/07 19:37:53;;;;;;;144.45;113.72;;;20.70;47.30;;;;;;4760576;55;21575;-34
2022/01/07 19:42:54;;;;;;;142.30;112.62;;;20.70;47.20;;;;;;4738522;59;21503;-31
2022/01/07 19:47:56;;;;;;;140.68;112.07;;;20.70;47.10;;;;;;4737324;59;21472;-34
2022/01/07 19:52:57;;;;;;;138.25;108.12;;;20.70;47.10;;;;;;4776827;55;21580;-33
2022/01/07 19:57:58;;;;;;;138.88;111.03;;;20.70;47.10;;;;;;4741506;55;21002;-29
2022/01/07 20:02:59;;;;;;;142.45;111.70;;;20.70;47.10;;;;;;4791292;55;21005;-34
2022/01/07 20:08:00;;;;;;;137.15;105.82;;;20.70;47.00;;;;;;4750789;55;21087;-31
2022/01/07 20:13:01;;;;;;;140.40;111.90;;;20.70;47.10;;;;;;4785765;55;21021;-32
2022/01/07 20:18:03;;;;;;;138.57;109.45;;;20.70;47.00;;;;;;4761178;55;21603;-29
2022/01/07 20:23:05;;;;;;;131.30;105.15;;;20.60;47.00;;;;;;4758282;55;21540;-35
2022/01/07 20:28:06;;;;;;;135.57;107.43;;;20.60;47.00;;;;;;4757345;55;21029;-35
2022/01/07 20:33:07;;;;;;;130.70;103.47;;;20.70;46.90;;;;;;4744737;55;21619;-31
2022/01/07 20:38:08;;;;;;;133.43;106.18;;;20.70;47.00;;;;;;4788496;55;21603;-32
2022/01/07 20:43:10;;;;;;;129.55;103.28;;;20.60;46.90;;;;;;4788958;55;21001;-33
2022/01/07 20:48:11;;;;;;;136.82;106.18;;;20.60;46.80;;;;;;4737363;59;21905;-36
2022/01/07 20:53:12;;;;;;;130.35;103.45;;;20.70;46.90;;;;;;4747088;55;22084;-36
2022/01/07 20:58:13;;;;;;;133.85;107.12;;;20.60;46.80;;;;;;4762760;55;21089;-34
2022/01/07 21:03:14;;;;;;;132.82;104.53;;;20.70;46.70;;;;;;4756084;55;21077;-35
2022/01/07 21:08:15;;;;;;;136.10;106.47;;;20.70;46.70;;;;;;4756035;55;21969;-37
2022/01/07 21:13:16;;;;;;;130.82;106.03;;;20.70;46.80;;;;;;4756885;55;21674;-35
2022/01/07 21:18:17;;;;;;;131.77;104.85;;;20.70;46.60;;;;;;4737974;59;21114;-35
2022/01/07 21:23:18;;;;;;;130.40;105.57;;;20.60;46.50;;;;;;4737388;59;21081;-30
2022/01/07 21:28:19;;;;;;;134.77;106.63;;;20.60;46.50;;;;;;4737868;55;21017;-32
2022/01/07 21:33:20;;;;;;;130.85;104.22;;;20.70;46.60;;;;;;4755988;55;21468;-36
2022/01/07 21:38:21;;;;;;;134.10;104.72;;;20.60;46.50;;;;;;4747361;55;21488;-35
2022/01/07 21:43:22;;;;;;;125.07;99.13;;;20.60;46.50;;;;;;4738360;59;21010;-35
2022/01/07 21:48:23;;;;;;;131.18;103.45;;;20.60;46.40;;;;;;4748057;55;21108;-32
2022/01/07 21:53:28;;;;;;;130.15;102.82;;;20.60;46.40;;;;;;4738356;59;21034;-34
2022/01/07 21:58:29;;;;;;;131.00;102.87;;;20.60;46.30;;;;;;4775600;55;21476;-29
2022/01/07 22:03:30;;;;;;;120.43;96.12;;;20.60;46.30;;;;;;4752365;55;20990;-32
2022/01/07 22:08:31;;;;;;;123.90;101.15;;;20.60;46.40;;;;;;4787276;55;21066;-30
2022/01/07 22:13:32;;;;;;;123.47;98.97;;;20.60;46.30;;;;;;4739261;55;21006;-30
2022/01/07 22:18:33;;;;;;;126.18;101.50;;;20.60;46.20;;;;;;4738297;59;21555;-30
2022/01/07 22:23:35;;;;;;;126.80;100.78;;;20.60;46.10;;;;;;4753327;55;20998;-35
2022/01/07 22:28:36;;;;;;;121.80;97.15;;;20.60;46.10;;;;;;4774102;55;21453;-36
2022/01/07 22:33:37;;;;;;;121.35;98.10;;;20.60;46.10;;;;;;4751437;55;21049;-36
2022/01/07 22:38:38;;;;;;;125.60;97.80;;;20.60;45.90;;;;;;4738023;55;21602;-36
2022/01/07 22:43:38;;;;;;;119.70;95.50;;;20.60;46.00;;;;;;4737981;59;21148;-31
2022/01/07 22:48:39;;;;;;;120.07;96.28;;;20.60;46.00;;;;;;4749183;55;21100;-35
2022/01/07 22:53:41;;;;;;;117.93;94.18;;;20.60;46.00;;;;;;4766268;55;21073;-31
2022/01/07 22:58:42;;;;;;;119.13;95.03;;;20.60;45.80;;;;;;4762621;55;21109;-36
2022/01/07 23:03:43;;;;;;;120.30;95.53;;;20.60;45.80;;;;;;4748349;55;20994;-35
2022/01/07 23:08:44;;;;;;;112.55;91.65;;;20.60;45.80;;;;;;4737285;59;21101;-33
2022/01/07 23:13:51;;;;;;;112.93;90.43;;;20.60;45.80;;;;;;4758356;55;21532;-36
2022/01/07 23:18:54;;;;;;;119.95;94.53;;;20.60;45.80;;;;;;4764398;55;21551;-36
2022/01/07 23:23:55;;;;;;;111.55;90.15;;;20.60;45.80;;;;;;4752185;55;21002;-37
2022/01/07 23:28:56;;;;;;;110.60;88.90;;;20.60;45.70;;;;;;4767026;55;21444;-33
2022/01/07 23:34:07;;;;;;;112.70;89.70;;;20.60;45.70;;;;;;4746770;55;21499;-33
2022/01/07 23:39:08;;;;;;;113.72;90.45;;;20.60;45.60;;;;;;4744859;55;21440;-30
2022/01/07 23:44:09;;;;;;;107.15;87.32;;;20.60;45.60;;;;;;4755577;55;21460;-33
2022/01/07 23:49:10;;;;;;;109.37;89.93;;;20.50;46.20;;;;;;4747622;55;21014;-31
2022/01/07 23:54:10;;;;;;;107.07;86.80;;;20.60;45.60;;;;;;4761761;55;22082;-35
2022/01/07 23:59:11;;;;;;;110.70;88.37;;;20.60;45.60;;;;;;4738518;55;21065;-32
